createdAt,value
2019-01-26T00:00:26.969Z,22.82
2019-01-26T00:00:58.938Z,22.78
2019-01-26T00:01:30.920Z,22.82
2019-01-26T00:02:02.906Z,22.85
2019-01-26T00:02:34.878Z,22.85
2019-01-26T00:03:06.856Z,22.85
2019-01-26T00:03:38.847Z,22.84
2019-01-26T00:04:10.818Z,22.85
2019-01-26T00:04:42.796Z,22.82
2019-01-26T00:05:14.811Z,22.85
2019-01-26T00:05:46.767Z,22.82
2019-01-26T00:06:18.744Z,22.85
2019-01-26T00:06:50.713Z,22.85
2019-01-26T00:07:22.691Z,22.85
2019-01-26T00:07:54.668Z,22.85
2019-01-26T00:08:26.644Z,22.86
2019-01-26T00:08:58.610Z,22.78
2019-01-26T00:09:30.561Z,22.86
2019-01-26T00:10:02.543Z,22.78
2019-01-26T00:10:34.536Z,22.86
2019-01-26T00:11:06.515Z,22.85
2019-01-26T00:11:38.492Z,22.86
2019-01-26T00:12:10.467Z,22.88
2019-01-26T00:12:42.443Z,22.81
2019-01-26T00:13:14.405Z,22.81
2019-01-26T00:13:46.398Z,22.81
2019-01-26T00:14:18.366Z,22.88
2019-01-26T00:14:50.352Z,22.86
2019-01-26T00:15:22.332Z,22.86
2019-01-26T00:15:54.308Z,22.82
2019-01-26T00:16:26.322Z,22.84
2019-01-26T00:16:58.290Z,22.79
2019-01-26T00:17:30.291Z,22.86
2019-01-26T00:18:02.251Z,22.84
2019-01-26T00:18:34.219Z,22.82
2019-01-26T00:19:06.193Z,22.88
2019-01-26T00:19:38.175Z,22.84
2019-01-26T00:20:10.151Z,22.81
2019-01-26T00:20:42.164Z,22.86
2019-01-26T00:21:14.120Z,22.86
2019-01-26T00:21:46.109Z,22.89
2019-01-26T00:22:18.091Z,22.88
2019-01-26T00:22:50.058Z,22.85
2019-01-26T00:23:22.052Z,22.81
2019-01-26T00:23:54.017Z,22.82
2019-01-26T00:24:26.027Z,22.89
2019-01-26T00:24:58.001Z,22.82
2019-01-26T00:25:30.004Z,22.85
2019-01-26T00:26:01.952Z,22.81
2019-01-26T00:26:36.293Z,22.88
2019-01-26T00:27:08.469Z,22.86
2019-01-26T00:27:40.452Z,22.86
2019-01-26T00:28:12.437Z,22.85
2019-01-26T00:28:44.418Z,22.86
2019-01-26T00:29:16.401Z,22.86
2019-01-26T00:29:48.369Z,22.86
2019-01-26T00:30:20.312Z,22.85
2019-01-26T00:30:52.286Z,22.85
2019-01-26T00:31:24.277Z,22.88
2019-01-26T00:31:56.228Z,22.91
2019-01-26T00:32:28.252Z,22.89
2019-01-26T00:33:00.214Z,22.89
2019-01-26T00:33:32.193Z,22.85
2019-01-26T00:34:04.156Z,22.99
2019-01-26T00:34:36.131Z,22.91
2019-01-26T00:35:08.112Z,22.85
2019-01-26T00:35:40.086Z,22.89
2019-01-26T00:36:12.075Z,22.86
2019-01-26T00:36:44.057Z,22.89
2019-01-26T00:37:16.060Z,22.91
2019-01-26T00:37:48.059Z,22.92
2019-01-26T00:38:20.040Z,22.88
2019-01-26T00:38:52.024Z,22.96
2019-01-26T00:39:23.999Z,22.88
2019-01-26T00:39:56.001Z,22.92
2019-01-26T00:40:27.977Z,22.91
2019-01-26T00:40:59.951Z,22.92
2019-01-26T00:41:31.927Z,22.86
2019-01-26T00:42:03.895Z,22.85
2019-01-26T00:42:35.876Z,22.89
2019-01-26T00:43:07.856Z,22.94
2019-01-26T00:43:39.851Z,22.92
2019-01-26T00:44:11.856Z,22.92
2019-01-26T00:44:43.840Z,22.91
2019-01-26T00:45:15.829Z,22.91
2019-01-26T00:45:47.801Z,22.92
2019-01-26T00:46:19.772Z,22.97
2019-01-26T00:46:51.722Z,22.86
2019-01-26T00:47:23.693Z,22.88
2019-01-26T00:47:55.659Z,22.92
2019-01-26T00:48:27.651Z,22.96
2019-01-26T00:48:59.609Z,22.99
2019-01-26T00:49:31.574Z,22.94
2019-01-26T00:50:03.543Z,22.96
2019-01-26T00:50:35.579Z,22.96
2019-01-26T00:51:07.546Z,22.96
2019-01-26T00:51:39.606Z,22.96
2019-01-26T00:52:11.579Z,22.92
2019-01-26T00:52:43.561Z,22.97
2019-01-26T00:53:15.550Z,22.96
2019-01-26T00:53:47.522Z,22.94
2019-01-26T00:54:19.501Z,22.99
2019-01-26T00:54:51.464Z,22.89
2019-01-26T00:55:23.436Z,22.99
2019-01-26T00:55:55.399Z,22.91
2019-01-26T00:56:27.368Z,22.88
2019-01-26T00:56:59.323Z,22.94
2019-01-26T00:57:31.287Z,22.88
2019-01-26T00:58:03.254Z,22.97
2019-01-26T00:58:35.217Z,22.88
2019-01-26T00:59:07.264Z,22.96
2019-01-26T00:59:39.660Z,22.88
2019-01-26T01:00:11.626Z,22.94
2019-01-26T01:00:43.596Z,22.94
2019-01-26T01:01:15.569Z,22.88
2019-01-26T01:01:47.527Z,22.94
2019-01-26T01:02:19.501Z,22.91
2019-01-26T01:02:51.483Z,22.91
2019-01-26T01:03:23.479Z,22.86
2019-01-26T01:03:55.593Z,22.96
2019-01-26T01:04:27.568Z,22.94
2019-01-26T01:04:59.527Z,22.91
2019-01-26T01:05:31.503Z,22.91
2019-01-26T01:06:03.489Z,22.91
2019-01-26T01:06:35.467Z,22.92
2019-01-26T01:07:07.435Z,22.94
2019-01-26T01:07:39.432Z,22.91
2019-01-26T01:08:11.524Z,23
2019-01-26T01:08:43.503Z,22.97
2019-01-26T01:09:15.463Z,22.94
2019-01-26T01:09:47.467Z,22.92
2019-01-26T01:10:19.914Z,22.91
2019-01-26T01:10:51.898Z,22.99
2019-01-26T01:11:23.866Z,22.96
2019-01-26T01:11:55.852Z,23
2019-01-26T01:12:27.830Z,23
2019-01-26T01:12:59.827Z,22.94
2019-01-26T01:13:31.780Z,22.96
2019-01-26T01:14:03.759Z,23.01
2019-01-26T01:14:35.750Z,22.97
2019-01-26T01:15:07.718Z,22.97
2019-01-26T01:15:39.691Z,22.96
2019-01-26T01:16:11.647Z,22.99
2019-01-26T01:16:43.629Z,22.97
2019-01-26T01:17:15.600Z,22.91
2019-01-26T01:17:47.580Z,22.97
2019-01-26T01:18:19.554Z,23.01
2019-01-26T01:18:51.571Z,22.99
2019-01-26T01:19:23.772Z,23
2019-01-26T01:19:55.751Z,22.96
2019-01-26T01:20:27.719Z,22.99
2019-01-26T01:20:59.720Z,22.99
2019-01-26T01:21:33.772Z,22.99
2019-01-26T01:22:05.743Z,22.99
2019-01-26T01:22:37.745Z,23
2019-01-26T01:23:09.740Z,23.01
2019-01-26T01:23:41.772Z,22.99
2019-01-26T01:24:14.081Z,22.99
2019-01-26T01:24:46.124Z,23.04
2019-01-26T01:25:18.095Z,23.03
2019-01-26T01:25:50.090Z,23.01
2019-01-26T01:26:22.055Z,22.99
2019-01-26T01:26:54.032Z,23.04
2019-01-26T01:27:26.019Z,22.97
2019-01-26T01:27:57.992Z,23.03
2019-01-26T01:28:30.002Z,23.03
2019-01-26T01:29:01.981Z,23
2019-01-26T01:29:33.951Z,23.03
2019-01-26T01:30:05.914Z,22.94
2019-01-26T01:30:37.878Z,22.97
2019-01-26T01:31:09.835Z,23.03
2019-01-26T01:31:41.819Z,22.99
2019-01-26T01:32:13.801Z,23.01
2019-01-26T01:32:45.787Z,23.03
2019-01-26T01:33:17.742Z,23.01
2019-01-26T01:33:49.728Z,23
2019-01-26T01:34:21.697Z,23.01
2019-01-26T01:34:53.678Z,22.99
2019-01-26T01:35:26.109Z,23.01
2019-01-26T01:35:58.088Z,23
2019-01-26T01:36:30.079Z,23.06
2019-01-26T01:37:02.050Z,23.07
2019-01-26T01:37:34.050Z,23.06
2019-01-26T01:38:06.023Z,23
2019-01-26T01:38:38.007Z,23
2019-01-26T01:39:09.985Z,23.03
2019-01-26T01:39:41.973Z,23
2019-01-26T01:40:13.939Z,23
2019-01-26T01:40:45.911Z,23
2019-01-26T01:41:17.888Z,23
2019-01-26T01:41:49.887Z,22.99
2019-01-26T01:42:21.871Z,22.96
2019-01-26T01:42:53.850Z,23.03
2019-01-26T01:43:25.813Z,22.97
2019-01-26T01:43:57.781Z,23.03
2019-01-26T01:44:29.764Z,23.01
2019-01-26T01:45:01.757Z,23.07
2019-01-26T01:45:33.739Z,23.03
2019-01-26T01:46:05.700Z,23
2019-01-26T01:46:42.834Z,23
2019-01-26T01:47:14.935Z,23.04
2019-01-26T01:47:46.973Z,23.04
2019-01-26T01:48:19.191Z,23.03
2019-01-26T01:48:51.161Z,22.99
2019-01-26T01:49:23.113Z,22.99
2019-01-26T01:49:55.085Z,23.04
2019-01-26T01:50:27.060Z,23.06
2019-01-26T01:50:59.037Z,22.92
2019-01-26T01:51:31.014Z,23.03
2019-01-26T01:52:02.991Z,23.04
2019-01-26T01:52:34.987Z,23.06
2019-01-26T01:53:07.230Z,23.07
2019-01-26T01:53:39.214Z,23.03
2019-01-26T01:54:11.185Z,23.06
2019-01-26T01:54:43.192Z,22.99
2019-01-26T01:55:15.179Z,23.03
2019-01-26T01:55:47.139Z,23.03
2019-01-26T01:56:19.126Z,23.03
2019-01-26T01:56:51.111Z,23.03
2019-01-26T01:57:23.076Z,23.06
2019-01-26T01:57:55.045Z,23
2019-01-26T01:58:27.020Z,23
2019-01-26T01:58:58.980Z,23.03
2019-01-26T01:59:30.962Z,23.03
2019-01-26T02:00:02.937Z,23.01
2019-01-26T02:00:34.895Z,23.06
2019-01-26T02:01:06.876Z,23.01
2019-01-26T02:01:38.874Z,23.03
2019-01-26T02:02:10.842Z,23.06
2019-01-26T02:02:42.805Z,23.01
2019-01-26T02:03:14.788Z,23.01
2019-01-26T02:03:46.755Z,23.06
2019-01-26T02:04:18.743Z,23.01
2019-01-26T02:04:50.718Z,22.96
2019-01-26T02:05:22.683Z,23.03
2019-01-26T02:05:54.658Z,23.03
2019-01-26T02:06:26.643Z,23.07
2019-01-26T02:06:58.612Z,23.03
2019-01-26T02:07:30.581Z,23.01
2019-01-26T02:08:02.565Z,23
2019-01-26T02:08:34.551Z,23.06
2019-01-26T02:09:06.544Z,23.01
2019-01-26T02:09:38.507Z,23.07
2019-01-26T02:10:10.492Z,23.03
2019-01-26T02:10:42.465Z,23
2019-01-26T02:11:14.487Z,23.06
2019-01-26T02:11:46.478Z,23.03
2019-01-26T02:12:18.458Z,23.04
2019-01-26T02:12:50.435Z,23.03
2019-01-26T02:13:22.406Z,23.01
2019-01-26T02:13:54.377Z,23.04
2019-01-26T02:14:26.347Z,23.07
2019-01-26T02:14:58.296Z,23.06
2019-01-26T02:15:30.264Z,23
2019-01-26T02:16:02.236Z,23.04
2019-01-26T02:16:34.225Z,23.06
2019-01-26T02:17:06.198Z,23.07
2019-01-26T02:17:38.185Z,23.04
2019-01-26T02:18:10.155Z,23.07
2019-01-26T02:18:42.138Z,23.09
2019-01-26T02:19:14.109Z,23.06
2019-01-26T02:19:46.078Z,23.03
2019-01-26T02:20:18.064Z,23.06
2019-01-26T02:20:50.024Z,23.03
2019-01-26T02:21:22.000Z,23.06
2019-01-26T02:21:54.003Z,23.01
2019-01-26T02:22:25.979Z,23.04
2019-01-26T02:22:57.964Z,23.03
2019-01-26T02:23:29.950Z,23.01
2019-01-26T02:24:01.926Z,23.09
2019-01-26T02:24:33.911Z,23.12
2019-01-26T02:25:05.923Z,23.04
2019-01-26T02:25:37.896Z,23.07
2019-01-26T02:26:09.868Z,23.12
2019-01-26T02:26:41.832Z,23.07
2019-01-26T02:27:13.794Z,23.06
2019-01-26T02:27:45.757Z,23.09
2019-01-26T02:28:17.777Z,23.1
2019-01-26T02:28:49.767Z,23.06
2019-01-26T02:29:21.731Z,23.06
2019-01-26T02:29:53.721Z,23.07
2019-01-26T02:30:25.696Z,23.03
2019-01-26T02:30:57.703Z,23.1
2019-01-26T02:31:29.678Z,23.07
2019-01-26T02:32:01.684Z,23.1
2019-01-26T02:32:33.703Z,23.01
2019-01-26T02:33:05.702Z,23.1
2019-01-26T02:33:37.713Z,22.99
2019-01-26T02:34:09.715Z,23.03
2019-01-26T02:34:41.714Z,23
2019-01-26T02:35:13.697Z,23.1
2019-01-26T02:35:45.671Z,23.06
2019-01-26T02:36:17.638Z,23.06
2019-01-26T02:36:49.619Z,23.1
2019-01-26T02:37:21.587Z,23.04
2019-01-26T02:37:53.550Z,23.04
2019-01-26T02:38:25.533Z,23.06
2019-01-26T02:38:57.515Z,23.1
2019-01-26T02:39:29.506Z,23.01
2019-01-26T02:40:01.518Z,23.07
2019-01-26T02:40:33.537Z,23.09
2019-01-26T02:41:05.523Z,23.01
2019-01-26T02:41:37.507Z,23.09
2019-01-26T02:42:09.490Z,23.04
2019-01-26T02:42:41.461Z,23.12
2019-01-26T02:43:13.429Z,23.03
2019-01-26T02:43:45.400Z,23.04
2019-01-26T02:44:17.373Z,23.01
2019-01-26T02:44:49.351Z,23.07
2019-01-26T02:45:21.343Z,23.07
2019-01-26T02:45:53.325Z,23.03
2019-01-26T02:46:25.329Z,23.09
2019-01-26T02:46:57.995Z,23.09
2019-01-26T02:47:30.204Z,23.1
2019-01-26T02:48:02.233Z,23.09
2019-01-26T02:48:34.238Z,23.16
2019-01-26T02:49:06.239Z,23.18
2019-01-26T02:49:38.213Z,23.06
2019-01-26T02:50:10.202Z,23.12
2019-01-26T02:50:42.162Z,23.18
2019-01-26T02:51:14.150Z,23.03
2019-01-26T02:51:46.127Z,23.04
2019-01-26T02:52:18.095Z,23.06
2019-01-26T02:52:50.075Z,23.12
2019-01-26T02:53:22.056Z,23.14
2019-01-26T02:53:54.012Z,23.07
2019-01-26T02:54:25.997Z,23.07
2019-01-26T02:54:57.984Z,23.06
2019-01-26T02:55:29.984Z,23.06
2019-01-26T02:56:01.952Z,23.06
2019-01-26T02:56:33.922Z,23.06
2019-01-26T02:57:05.900Z,23.07
2019-01-26T02:57:37.882Z,23.03
2019-01-26T02:58:09.847Z,23.06
2019-01-26T02:58:41.825Z,23.03
2019-01-26T02:59:13.802Z,23.06
2019-01-26T02:59:45.798Z,23.06
2019-01-26T03:00:17.786Z,23.04
2019-01-26T03:00:49.767Z,23.09
2019-01-26T03:01:21.765Z,23.09
2019-01-26T03:01:53.758Z,23.06
2019-01-26T03:02:25.745Z,23.06
2019-01-26T03:02:57.763Z,23.04
2019-01-26T03:03:29.746Z,23.07
2019-01-26T03:04:01.729Z,23.09
2019-01-26T03:04:33.714Z,23.12
2019-01-26T03:05:05.705Z,23.07
2019-01-26T03:05:37.684Z,23.1
2019-01-26T03:06:09.738Z,23.06
2019-01-26T03:06:43.363Z,23.09
2019-01-26T03:07:15.334Z,23.07
2019-01-26T03:07:47.323Z,23.01
2019-01-26T03:08:19.304Z,23.07
2019-01-26T03:08:51.294Z,23.09
2019-01-26T03:09:23.270Z,23.1
2019-01-26T03:09:55.254Z,23.04
2019-01-26T03:10:27.232Z,23.03
2019-01-26T03:10:59.197Z,23.09
2019-01-26T03:11:31.167Z,23
2019-01-26T03:12:03.148Z,23.09
2019-01-26T03:12:35.130Z,23.06
2019-01-26T03:13:07.108Z,23.01
2019-01-26T03:13:39.079Z,23.04
2019-01-26T03:14:11.062Z,23.16
2019-01-26T03:14:43.083Z,23.06
2019-01-26T03:15:15.067Z,23.07
2019-01-26T03:15:47.036Z,23.03
2019-01-26T03:16:19.008Z,23.03
2019-01-26T03:16:50.980Z,23.07
2019-01-26T03:17:22.975Z,23.04
2019-01-26T03:17:54.959Z,23.12
2019-01-26T03:18:26.971Z,23.04
2019-01-26T03:18:58.948Z,23.07
2019-01-26T03:19:30.932Z,23.21
2019-01-26T03:20:02.902Z,23.07
2019-01-26T03:20:34.892Z,23.1
2019-01-26T03:21:06.862Z,23.06
2019-01-26T03:21:38.845Z,23.1
2019-01-26T03:22:10.826Z,23.04
2019-01-26T03:22:42.804Z,23.06
2019-01-26T03:23:14.790Z,23.06
2019-01-26T03:23:46.762Z,23.04
2019-01-26T03:24:18.750Z,23.1
2019-01-26T03:24:50.753Z,23.1
2019-01-26T03:25:22.741Z,23.04
2019-01-26T03:25:54.724Z,23.09
2019-01-26T03:26:26.703Z,23.19
2019-01-26T03:26:58.685Z,23.07
2019-01-26T03:27:30.676Z,23.09
2019-01-26T03:28:02.647Z,23.09
2019-01-26T03:28:34.638Z,23.07
2019-01-26T03:29:07.327Z,23.18
2019-01-26T03:29:39.321Z,23.1
2019-01-26T03:30:11.307Z,23.12
2019-01-26T03:30:43.313Z,23.07
2019-01-26T03:31:15.310Z,23.07
2019-01-26T03:31:47.360Z,23.12
2019-01-26T03:32:19.386Z,23.12
2019-01-26T03:32:51.370Z,23.03
2019-01-26T03:33:23.513Z,23.15
2019-01-26T03:33:55.533Z,23.09
2019-01-26T03:34:27.524Z,23.09
2019-01-26T03:34:59.501Z,23.07
2019-01-26T03:35:31.530Z,23.07
2019-01-26T03:36:03.507Z,23.04
2019-01-26T03:36:35.510Z,23.14
2019-01-26T03:37:07.518Z,23.21
2019-01-26T03:37:39.529Z,23.07
2019-01-26T03:38:11.540Z,23.15
2019-01-26T03:38:43.528Z,23.12
2019-01-26T03:39:15.513Z,23.18
2019-01-26T03:39:47.496Z,23.09
2019-01-26T03:40:19.479Z,23.14
2019-01-26T03:40:51.470Z,23.15
2019-01-26T03:41:23.469Z,23.19
2019-01-26T03:41:55.453Z,23.15
2019-01-26T03:42:27.443Z,23.15
2019-01-26T03:42:59.419Z,23.18
2019-01-26T03:43:31.391Z,23.21
2019-01-26T03:44:03.920Z,23.15
2019-01-26T03:44:35.907Z,23.18
2019-01-26T03:45:07.884Z,23.18
2019-01-26T03:45:39.869Z,23.22
2019-01-26T03:46:11.847Z,23.22
2019-01-26T03:46:43.842Z,23.15
2019-01-26T03:47:15.804Z,23.19
2019-01-26T03:47:47.803Z,23.18
2019-01-26T03:48:19.774Z,23.18
2019-01-26T03:48:51.767Z,23.16
2019-01-26T03:49:23.736Z,23.22
2019-01-26T03:49:55.728Z,23.18
2019-01-26T03:50:27.697Z,23.26
2019-01-26T03:50:59.684Z,23.26
2019-01-26T03:51:31.670Z,23.22
2019-01-26T03:52:03.660Z,23.25
2019-01-26T03:52:35.630Z,23.18
2019-01-26T03:53:07.614Z,23.21
2019-01-26T03:53:39.586Z,23.24
2019-01-26T03:54:11.598Z,23.25
2019-01-26T03:54:43.590Z,23.19
2019-01-26T03:55:15.598Z,23.26
2019-01-26T03:55:47.636Z,23.18
2019-01-26T03:56:19.631Z,23.16
2019-01-26T03:56:51.607Z,23.15
2019-01-26T03:57:23.623Z,23.24
2019-01-26T03:57:55.617Z,23.18
2019-01-26T03:58:27.592Z,23.24
2019-01-26T03:58:59.588Z,23.19
2019-01-26T03:59:31.579Z,23.29
2019-01-26T04:00:03.595Z,23.19
2019-01-26T04:00:35.595Z,23.25
2019-01-26T04:01:07.581Z,23.24
2019-01-26T04:01:39.590Z,23.26
2019-01-26T04:02:11.564Z,23.21
2019-01-26T04:02:43.539Z,23.25
2019-01-26T04:03:15.514Z,23.25
2019-01-26T04:03:47.509Z,23.16
2019-01-26T04:04:19.492Z,23.19
2019-01-26T04:04:51.474Z,23.21
2019-01-26T04:05:23.456Z,23.25
2019-01-26T04:05:55.446Z,23.28
2019-01-26T04:06:27.470Z,23.28
2019-01-26T04:06:59.450Z,23.24
2019-01-26T04:07:31.442Z,23.19
2019-01-26T04:08:03.445Z,23.19
2019-01-26T04:08:35.516Z,23.24
2019-01-26T04:09:07.521Z,23.22
2019-01-26T04:09:39.483Z,23.28
2019-01-26T04:10:11.466Z,23.28
2019-01-26T04:10:43.442Z,23.29
2019-01-26T04:11:15.416Z,23.24
2019-01-26T04:11:47.411Z,23.28
2019-01-26T04:12:19.461Z,23.26
2019-01-26T04:12:51.470Z,23.26
2019-01-26T04:13:23.453Z,23.25
2019-01-26T04:13:55.441Z,23.25
2019-01-26T04:14:27.433Z,23.22
2019-01-26T04:14:59.464Z,23.25
2019-01-26T04:15:31.472Z,23.26
2019-01-26T04:16:03.461Z,23.24
2019-01-26T04:16:35.467Z,23.21
2019-01-26T04:17:07.446Z,23.28
2019-01-26T04:17:39.436Z,23.26
2019-01-26T04:18:11.398Z,23.26
2019-01-26T04:18:43.374Z,23.22
2019-01-26T04:19:15.365Z,23.22
2019-01-26T04:19:47.345Z,23.25
2019-01-26T04:20:19.334Z,23.25
2019-01-26T04:20:51.415Z,23.24
2019-01-26T04:21:23.382Z,23.21
2019-01-26T04:21:55.357Z,23.18
2019-01-26T04:22:27.352Z,23.29
2019-01-26T04:22:59.352Z,23.19
2019-01-26T04:23:31.357Z,23.29
2019-01-26T04:24:03.325Z,23.26
2019-01-26T04:24:35.304Z,23.22
2019-01-26T04:25:07.304Z,23.25
2019-01-26T04:25:39.306Z,23.25
2019-01-26T04:26:11.306Z,23.24
2019-01-26T04:26:43.299Z,23.19
2019-01-26T04:27:15.293Z,23.26
2019-01-26T04:27:47.278Z,23.26
2019-01-26T04:28:19.282Z,23.26
2019-01-26T04:28:51.266Z,23.32
2019-01-26T04:29:23.242Z,23.28
2019-01-26T04:29:55.236Z,23.25
2019-01-26T04:30:27.209Z,23.32
2019-01-26T04:30:59.189Z,23.32
2019-01-26T04:31:31.180Z,23.28
2019-01-26T04:32:03.170Z,23.28
2019-01-26T04:32:35.153Z,23.38
2019-01-26T04:33:07.150Z,23.35
2019-01-26T04:33:39.118Z,23.25
2019-01-26T04:34:11.148Z,23.37
2019-01-26T04:34:43.119Z,23.35
2019-01-26T04:35:15.087Z,23.4
2019-01-26T04:35:47.094Z,23.38
2019-01-26T04:36:19.076Z,23.37
2019-01-26T04:36:51.083Z,23.28
2019-01-26T04:37:23.056Z,23.29
2019-01-26T04:37:55.044Z,23.32
2019-01-26T04:38:27.030Z,23.28
2019-01-26T04:38:59.018Z,23.38
2019-01-26T04:39:31.011Z,23.26
2019-01-26T04:40:03.020Z,23.35
2019-01-26T04:40:34.995Z,23.35
2019-01-26T04:41:07.013Z,23.42
2019-01-26T04:41:38.996Z,23.38
2019-01-26T04:42:10.974Z,23.41
2019-01-26T04:42:42.956Z,23.35
2019-01-26T04:43:14.942Z,23.38
2019-01-26T04:43:46.937Z,23.25
2019-01-26T04:44:18.925Z,23.41
2019-01-26T04:44:50.949Z,23.35
2019-01-26T04:45:22.926Z,23.4
2019-01-26T04:45:54.929Z,23.4
2019-01-26T04:46:26.918Z,23.29
2019-01-26T04:46:58.905Z,23.4
2019-01-26T04:47:31.321Z,23.24
2019-01-26T04:48:03.334Z,23.37
2019-01-26T04:48:35.320Z,23.38
2019-01-26T04:49:07.305Z,23.35
2019-01-26T04:49:39.297Z,23.25
2019-01-26T04:50:11.276Z,23.38
2019-01-26T04:50:43.262Z,23.35
2019-01-26T04:51:15.270Z,23.41
2019-01-26T04:51:47.257Z,23.4
2019-01-26T04:52:19.256Z,23.4
2019-01-26T04:52:51.249Z,23.29
2019-01-26T04:53:23.240Z,23.34
2019-01-26T04:53:55.212Z,23.42
2019-01-26T04:54:27.186Z,23.4
2019-01-26T04:54:59.173Z,23.38
2019-01-26T04:55:31.164Z,23.32
2019-01-26T04:56:03.153Z,23.4
2019-01-26T04:56:35.122Z,23.37
2019-01-26T04:57:07.114Z,23.26
2019-01-26T04:57:39.101Z,23.29
2019-01-26T04:58:11.084Z,23.38
2019-01-26T04:58:43.052Z,23.44
2019-01-26T04:59:15.027Z,23.29
2019-01-26T04:59:47.014Z,23.38
2019-01-26T05:00:19.025Z,23.4
2019-01-26T05:00:51.012Z,23.34
2019-01-26T05:01:22.973Z,23.29
2019-01-26T05:01:54.972Z,23.38
2019-01-26T05:02:26.951Z,23.28
2019-01-26T05:02:58.925Z,23.34
2019-01-26T05:03:30.911Z,23.35
2019-01-26T05:04:02.880Z,23.28
2019-01-26T05:04:34.856Z,23.37
2019-01-26T05:05:06.841Z,23.38
2019-01-26T05:05:38.817Z,23.37
2019-01-26T05:06:10.787Z,23.44
2019-01-26T05:06:42.776Z,23.35
2019-01-26T05:07:14.771Z,23.38
2019-01-26T05:07:46.758Z,23.44
2019-01-26T05:08:18.981Z,23.37
2019-01-26T05:08:50.968Z,23.4
2019-01-26T05:09:22.949Z,23.4
2019-01-26T05:09:54.914Z,23.35
2019-01-26T05:10:26.895Z,23.41
2019-01-26T05:10:58.878Z,23.38
2019-01-26T05:11:30.886Z,23.37
2019-01-26T05:12:02.856Z,23.37
2019-01-26T05:12:34.837Z,23.38
2019-01-26T05:13:06.807Z,23.4
2019-01-26T05:13:38.821Z,23.4
2019-01-26T05:14:10.796Z,23.34
2019-01-26T05:14:42.755Z,23.37
2019-01-26T05:15:14.749Z,23.4
2019-01-26T05:15:46.715Z,23.41
2019-01-26T05:16:18.712Z,23.34
2019-01-26T05:16:50.674Z,23.37
2019-01-26T05:17:22.656Z,23.29
2019-01-26T05:17:54.634Z,23.29
2019-01-26T05:18:26.629Z,23.38
2019-01-26T05:18:58.594Z,23.29
2019-01-26T05:19:30.555Z,23.34
2019-01-26T05:20:02.519Z,23.34
2019-01-26T05:20:34.500Z,23.38
2019-01-26T05:21:06.470Z,23.37
2019-01-26T05:21:38.446Z,23.28
2019-01-26T05:22:10.434Z,23.42
2019-01-26T05:22:42.453Z,23.4
2019-01-26T05:23:14.443Z,23.25
2019-01-26T05:23:46.442Z,23.41
2019-01-26T05:24:18.411Z,23.38
2019-01-26T05:24:50.395Z,23.4
2019-01-26T05:25:22.389Z,23.35
2019-01-26T05:25:54.355Z,23.4
2019-01-26T05:26:26.305Z,23.35
2019-01-26T05:26:58.287Z,23.4
2019-01-26T05:27:30.261Z,23.28
2019-01-26T05:28:02.217Z,23.34
2019-01-26T05:28:34.187Z,23.38
2019-01-26T05:29:06.162Z,23.38
2019-01-26T05:29:38.124Z,23.4
2019-01-26T05:30:10.094Z,23.37
2019-01-26T05:30:42.090Z,23.26
2019-01-26T05:31:14.133Z,23.41
2019-01-26T05:31:46.120Z,23.34
2019-01-26T05:32:18.079Z,23.32
2019-01-26T05:32:50.031Z,23.34
2019-01-26T05:33:21.985Z,23.44
2019-01-26T05:33:55.667Z,23.28
2019-01-26T05:34:27.672Z,23.38
2019-01-26T05:34:59.654Z,23.35
2019-01-26T05:35:31.668Z,23.38
2019-01-26T05:36:03.653Z,23.28
2019-01-26T05:36:35.699Z,23.25
2019-01-26T05:37:07.657Z,23.28
2019-01-26T05:37:39.621Z,23.35
2019-01-26T05:38:11.587Z,23.29
2019-01-26T05:38:43.600Z,23.38
2019-01-26T05:39:15.598Z,23.38
2019-01-26T05:39:47.585Z,23.47
2019-01-26T05:40:19.563Z,23.4
2019-01-26T05:40:51.542Z,23.38
2019-01-26T05:41:23.513Z,23.4
2019-01-26T05:41:55.488Z,23.28
2019-01-26T05:42:27.474Z,23.37
2019-01-26T05:42:59.435Z,23.4
2019-01-26T05:43:31.392Z,23.29
2019-01-26T05:44:03.367Z,23.35
2019-01-26T05:44:35.341Z,23.35
2019-01-26T05:45:07.302Z,23.29
2019-01-26T05:45:39.260Z,23.41
2019-01-26T05:46:11.240Z,23.38
2019-01-26T05:46:43.221Z,23.41
2019-01-26T05:47:15.210Z,23.34
2019-01-26T05:47:48.539Z,23.38
2019-01-26T05:48:21.457Z,23.29
2019-01-26T05:48:53.444Z,23.38
2019-01-26T05:49:25.446Z,23.34
2019-01-26T05:49:57.417Z,23.37
2019-01-26T05:50:29.372Z,23.47
2019-01-26T05:51:01.346Z,23.41
2019-01-26T05:51:33.330Z,23.4
2019-01-26T05:52:05.303Z,23.38
2019-01-26T05:52:37.280Z,23.42
2019-01-26T05:53:09.249Z,23.28
2019-01-26T05:53:42.003Z,23.41
2019-01-26T05:54:13.964Z,23.38
2019-01-26T05:54:45.951Z,23.26
2019-01-26T05:55:17.946Z,23.28
2019-01-26T05:55:49.937Z,23.28
2019-01-26T05:56:21.912Z,23.37
2019-01-26T05:56:53.882Z,23.38
2019-01-26T05:57:25.845Z,23.38
2019-01-26T05:57:57.823Z,23.4
2019-01-26T05:58:29.811Z,23.38
2019-01-26T05:59:01.769Z,23.37
2019-01-26T05:59:33.763Z,23.4
2019-01-26T06:00:05.740Z,23.37
2019-01-26T06:00:37.745Z,23.37
2019-01-26T06:01:09.731Z,23.38
2019-01-26T06:01:41.710Z,23.28
2019-01-26T06:02:13.704Z,23.37
2019-01-26T06:02:45.689Z,23.4
2019-01-26T06:03:17.679Z,23.26
2019-01-26T06:03:49.663Z,23.42
2019-01-26T06:04:21.652Z,23.4
2019-01-26T06:04:53.634Z,23.34
2019-01-26T06:05:25.604Z,23.35
2019-01-26T06:05:57.592Z,23.35
2019-01-26T06:06:29.553Z,23.38
2019-01-26T06:07:01.523Z,23.34
2019-01-26T06:07:33.525Z,23.4
2019-01-26T06:08:05.522Z,23.4
2019-01-26T06:08:37.515Z,23.29
2019-01-26T06:09:09.570Z,23.37
2019-01-26T06:09:41.551Z,23.28
2019-01-26T06:10:13.504Z,23.4
2019-01-26T06:10:45.463Z,23.37
2019-01-26T06:11:17.438Z,23.34
2019-01-26T06:11:49.409Z,23.34
2019-01-26T06:12:21.425Z,23.35
2019-01-26T06:12:53.401Z,23.4
2019-01-26T06:13:25.393Z,23.4
2019-01-26T06:13:57.376Z,23.41
2019-01-26T06:14:29.398Z,23.35
2019-01-26T06:15:01.388Z,23.35
2019-01-26T06:15:33.381Z,23.38
2019-01-26T06:16:05.365Z,23.34
2019-01-26T06:16:37.358Z,23.38
2019-01-26T06:17:09.324Z,23.4
2019-01-26T06:17:41.283Z,23.4
2019-01-26T06:18:13.278Z,23.29
2019-01-26T06:18:45.257Z,23.44
2019-01-26T06:19:17.244Z,23.38
2019-01-26T06:19:49.213Z,23.37
2019-01-26T06:20:21.207Z,23.38
2019-01-26T06:20:53.214Z,23.4
2019-01-26T06:21:25.193Z,23.41
2019-01-26T06:21:57.185Z,23.41
2019-01-26T06:22:29.158Z,23.38
2019-01-26T06:23:01.139Z,23.38
2019-01-26T06:23:33.121Z,23.37
2019-01-26T06:24:05.093Z,23.45
2019-01-26T06:24:37.065Z,23.4
2019-01-26T06:25:09.076Z,23.38
2019-01-26T06:25:41.084Z,23.38
2019-01-26T06:26:13.070Z,23.4
2019-01-26T06:26:45.039Z,23.37
2019-01-26T06:27:17.001Z,23.38
2019-01-26T06:27:49.002Z,23.38
2019-01-26T06:28:20.977Z,23.37
2019-01-26T06:28:52.955Z,23.4
2019-01-26T06:29:24.934Z,23.37
2019-01-26T06:29:56.920Z,23.29
2019-01-26T06:30:28.886Z,23.38
2019-01-26T06:31:00.857Z,23.37
2019-01-26T06:31:32.826Z,23.41
2019-01-26T06:32:04.844Z,23.44
2019-01-26T06:32:36.803Z,23.38
2019-01-26T06:33:08.767Z,23.41
2019-01-26T06:33:40.735Z,23.38
2019-01-26T06:34:12.754Z,23.44
2019-01-26T06:34:44.708Z,23.41
2019-01-26T06:35:16.678Z,23.37
2019-01-26T06:35:48.806Z,23.4
2019-01-26T06:36:20.807Z,23.38
2019-01-26T06:36:52.797Z,23.44
2019-01-26T06:37:24.780Z,23.41
2019-01-26T06:37:56.756Z,23.37
2019-01-26T06:38:28.720Z,23.44
2019-01-26T06:39:00.705Z,23.41
2019-01-26T06:39:32.695Z,23.41
2019-01-26T06:40:04.666Z,23.35
2019-01-26T06:40:36.623Z,23.37
2019-01-26T06:41:08.599Z,23.35
2019-01-26T06:41:40.571Z,23.41
2019-01-26T06:42:12.646Z,23.41
2019-01-26T06:42:44.691Z,23.38
2019-01-26T06:43:16.657Z,23.4
2019-01-26T06:43:48.643Z,23.41
2019-01-26T06:44:20.629Z,23.4
2019-01-26T06:44:52.589Z,23.4
2019-01-26T06:45:24.579Z,23.35
2019-01-26T06:45:56.550Z,23.4
2019-01-26T06:46:28.543Z,23.37
2019-01-26T06:47:00.587Z,23.29
2019-01-26T06:47:32.561Z,23.42
2019-01-26T06:48:04.533Z,23.44
2019-01-26T06:48:36.486Z,23.41
2019-01-26T06:49:08.453Z,23.26
2019-01-26T06:49:40.438Z,23.37
2019-01-26T06:50:12.409Z,23.28
2019-01-26T06:50:44.392Z,23.26
2019-01-26T06:51:16.363Z,23.37
2019-01-26T06:51:48.361Z,23.37
2019-01-26T06:52:20.354Z,23.38
2019-01-26T06:52:52.327Z,23.44
2019-01-26T06:53:24.334Z,23.41
2019-01-26T06:53:56.326Z,23.37
2019-01-26T06:54:28.281Z,23.25